Chelsea, Iowa
Current Conditions -  °F | °C
As of 10:15 AM on Thursday 23 Oct 2014 (Local Time) from KGGI Reporting Station
Overcast Overcast  
Wind Chill: 51°   Ceiling: 1300
Heat Index: 51°   Visibility: 10mi
Dew Point: 47°   Wind: 3mph
Humidity: 87%   Direction: 190°S
Pressure: 30.06"   Gusts: NA
Location:  41.92°N, 92.39°W
Report Text: KGGI 231515Z AUTO 19003KT 10SM OVC013 11/09 A3006 RMK AO2 T01050085
Loading
Personal Weather Stations






























Interactive Weather Map
Tropical Storm Tracking
New forecast layout! Learn more

10-Day Weather Forecast

Advertisements
Track Severe Weather on mobile